createdAt,value
2017-09-26T00:00:25.934Z,10.37
2017-09-26T00:02:53.716Z,13.13
2017-09-26T00:05:21.289Z,10.93
2017-09-26T00:07:48.756Z,12.40
2017-09-26T00:10:16.259Z,9.07
2017-09-26T00:12:43.728Z,12.77
2017-09-26T00:15:11.498Z,7.90
2017-09-26T00:17:38.984Z,8.10
2017-09-26T00:20:06.464Z,9.90
2017-09-26T00:22:34.197Z,13.47
2017-09-26T00:25:01.665Z,11.30
2017-09-26T00:27:29.148Z,11.23
2017-09-26T00:29:56.655Z,10.47
2017-09-26T00:32:24.159Z,14.87
2017-09-26T00:34:52.014Z,11.17
2017-09-26T00:37:19.491Z,14.37
2017-09-26T00:39:46.969Z,13.60
2017-09-26T00:42:14.486Z,17.53
2017-09-26T00:44:41.898Z,11.77
2017-09-26T00:47:09.316Z,15.63
2017-09-26T00:49:36.737Z,14.70
2017-09-26T00:52:04.152Z,12.97
2017-09-26T00:54:31.571Z,17.60
2017-09-26T00:56:59.278Z,15.30
2017-09-26T00:59:26.684Z,14.43
2017-09-26T01:01:54.105Z,15.87
2017-09-26T01:04:21.517Z,16.83
2017-09-26T01:09:50.602Z,12.30
2017-09-26T01:12:18.054Z,8.03
2017-09-26T01:14:45.464Z,10.53
2017-09-26T01:17:12.923Z,16.73
2017-09-26T01:19:40.409Z,9.10
2017-09-26T01:22:07.873Z,10.17
2017-09-26T01:24:35.327Z,9.90
2017-09-26T01:27:02.809Z,11.40
2017-09-26T01:29:30.294Z,11.33
2017-09-26T01:31:57.789Z,13.30
2017-09-26T01:34:25.356Z,14.77
2017-09-26T01:36:52.841Z,11.10
2017-09-26T01:39:20.303Z,12.80
2017-09-26T01:41:47.831Z,11.97
2017-09-26T01:44:15.406Z,8.77
2017-09-26T01:46:42.892Z,12.73
2017-09-26T01:49:11.298Z,9.60
2017-09-26T01:51:38.762Z,14.90
2017-09-26T01:54:06.238Z,8.90
2017-09-26T01:56:34.032Z,16.30
2017-09-26T01:59:06.032Z,13.83
2017-09-26T02:01:33.484Z,10.57
2017-09-26T02:04:00.972Z,12.17
2017-09-26T02:06:28.431Z,14.07
2017-09-26T02:08:55.899Z,10.00
2017-09-26T02:11:24.193Z,14.07
2017-09-26T02:13:51.668Z,9.30
2017-09-26T02:16:19.137Z,8.20
2017-09-26T02:18:46.630Z,9.67
2017-09-26T02:21:14.116Z,10.43
2017-09-26T02:23:41.580Z,12.27
2017-09-26T02:26:09.140Z,10.80
2017-09-26T02:28:36.702Z,10.10
2017-09-26T02:31:04.204Z,15.13
2017-09-26T02:33:31.661Z,15.23
2017-09-26T02:35:59.140Z,14.33
2017-09-26T02:38:26.606Z,15.50
2017-09-26T02:40:54.096Z,15.40
2017-09-26T02:43:21.567Z,13.03
2017-09-26T02:45:49.101Z,14.90
2017-09-26T02:48:16.582Z,17.87
2017-09-26T02:50:44.054Z,15.30
2017-09-26T02:53:11.531Z,17.13
2017-09-26T02:55:38.995Z,13.63
2017-09-26T02:58:06.479Z,19.93
2017-09-26T03:00:33.944Z,17.10
2017-09-26T03:03:01.419Z,19.57
2017-09-26T03:05:28.882Z,15.53
2017-09-26T03:07:56.372Z,16.87
2017-09-26T03:10:23.861Z,15.37
2017-09-26T03:12:51.424Z,14.67
2017-09-26T03:15:18.899Z,12.60
2017-09-26T03:17:46.398Z,11.70
2017-09-26T03:20:13.893Z,16.90
2017-09-26T03:22:41.352Z,16.77
2017-09-26T03:25:08.821Z,15.27
2017-09-26T03:27:36.334Z,17.27
2017-09-26T03:30:03.833Z,14.53
2017-09-26T03:32:31.384Z,22.10
2017-09-26T03:34:58.861Z,16.20
2017-09-26T03:37:26.326Z,20.80
2017-09-26T03:39:53.792Z,14.73
2017-09-26T03:42:21.274Z,13.37
2017-09-26T03:44:48.735Z,11.83
2017-09-26T03:47:16.236Z,13.90
2017-09-26T03:49:43.694Z,13.47
2017-09-26T03:52:11.242Z,18.83
2017-09-26T03:54:38.699Z,16.30
2017-09-26T03:57:06.190Z,11.30
2017-09-26T03:59:33.659Z,16.57
2017-09-26T04:02:01.130Z,18.10
2017-09-26T04:04:28.595Z,17.30
2017-09-26T04:06:56.053Z,16.97
2017-09-26T04:09:23.526Z,18.93
2017-09-26T04:11:50.987Z,24.30
2017-09-26T04:14:18.767Z,18.80
2017-09-26T04:16:46.230Z,13.80
2017-09-26T04:19:13.718Z,12.80
2017-09-26T04:21:41.201Z,15.50
2017-09-26T04:24:08.659Z,13.73
2017-09-26T04:26:36.168Z,16.40
2017-09-26T04:29:03.633Z,13.37
2017-09-26T04:31:31.104Z,13.23
2017-09-26T04:33:58.581Z,14.17
2017-09-26T04:36:26.080Z,16.57
2017-09-26T04:38:53.624Z,24.33
2017-09-26T04:41:21.110Z,16.07
2017-09-26T04:43:48.676Z,18.83
2017-09-26T04:46:16.135Z,13.40
2017-09-26T04:48:43.618Z,18.53
2017-09-26T04:51:11.129Z,13.80
2017-09-26T04:53:38.614Z,16.60
2017-09-26T04:56:06.161Z,19.10
2017-09-26T04:58:33.667Z,15.50
2017-09-26T05:01:01.147Z,15.03
2017-09-26T05:03:28.600Z,20.43
2017-09-26T05:05:56.075Z,28.00
2017-09-26T05:08:23.539Z,22.10
2017-09-26T05:10:51.037Z,18.13
2017-09-26T05:13:18.526Z,20.13
2017-09-26T05:15:46.015Z,15.47
2017-09-26T05:18:13.492Z,15.43
2017-09-26T05:20:41.027Z,15.90
2017-09-26T05:23:08.495Z,16.57
2017-09-26T05:25:35.962Z,11.70
2017-09-26T05:28:03.454Z,11.60
2017-09-26T05:30:30.932Z,10.93
2017-09-26T05:32:58.411Z,10.87
2017-09-26T05:35:25.888Z,10.30
2017-09-26T05:37:53.369Z,13.13
2017-09-26T05:40:20.833Z,11.07
2017-09-26T05:42:48.327Z,10.03
2017-09-26T05:45:15.798Z,10.57
2017-09-26T05:47:43.264Z,9.57
2017-09-26T05:50:10.789Z,8.93
2017-09-26T05:52:50.222Z,14.37
2017-09-26T05:55:17.695Z,11.20
2017-09-26T05:57:45.342Z,11.23
2017-09-26T06:00:12.843Z,12.40
2017-09-26T06:02:40.330Z,9.47
2017-09-26T06:05:07.905Z,15.60
2017-09-26T06:07:35.559Z,20.50
2017-09-26T06:10:03.311Z,17.30
2017-09-26T06:12:30.812Z,12.70
2017-09-26T06:14:58.286Z,12.17
2017-09-26T06:17:25.762Z,15.30
2017-09-26T06:19:53.263Z,10.23
2017-09-26T06:22:20.819Z,8.43
2017-09-26T06:24:48.296Z,8.40
2017-09-26T06:27:15.809Z,10.57
2017-09-26T06:29:43.303Z,12.13
2017-09-26T06:32:10.813Z,12.43
2017-09-26T06:34:38.361Z,17.33
2017-09-26T06:37:05.885Z,12.13
2017-09-26T06:39:33.396Z,11.87
2017-09-26T06:42:00.889Z,12.90
2017-09-26T06:44:28.409Z,10.00
2017-09-26T06:46:55.880Z,16.80
2017-09-26T06:49:23.340Z,11.27
2017-09-26T06:51:50.851Z,18.33
2017-09-26T06:54:18.319Z,11.80
2017-09-26T06:56:45.796Z,10.30
2017-09-26T06:59:13.267Z,12.10
2017-09-26T07:01:40.763Z,10.70
2017-09-26T07:04:08.240Z,11.60
2017-09-26T07:06:35.737Z,12.33
2017-09-26T07:09:03.206Z,14.20
2017-09-26T07:11:30.692Z,20.63
2017-09-26T07:13:58.171Z,12.57
2017-09-26T07:16:25.632Z,13.10
2017-09-26T07:18:53.108Z,14.90
2017-09-26T07:21:20.574Z,13.83
2017-09-26T07:23:48.072Z,23.33
2017-09-26T07:26:15.573Z,16.57
2017-09-26T07:28:43.052Z,23.23
2017-09-26T07:31:10.920Z,21.63
2017-09-26T07:33:38.437Z,20.20
2017-09-26T07:36:05.940Z,12.73
2017-09-26T07:38:33.452Z,15.80
2017-09-26T07:41:00.933Z,14.20
2017-09-26T07:43:28.432Z,24.30
2017-09-26T07:45:55.959Z,18.77
2017-09-26T07:48:23.427Z,24.43
2017-09-26T07:50:50.945Z,21.83
2017-09-26T07:53:18.419Z,27.00
2017-09-26T07:55:45.919Z,21.03
2017-09-26T07:58:13.403Z,14.93
2017-09-26T08:00:41.678Z,15.13
2017-09-26T08:03:09.148Z,17.23
2017-09-26T08:05:37.436Z,17.20
2017-09-26T08:08:05.799Z,16.13
2017-09-26T08:10:33.258Z,14.47
2017-09-26T08:13:00.723Z,13.87
2017-09-26T08:15:28.320Z,12.53
2017-09-26T08:17:55.866Z,16.60
2017-09-26T08:20:23.345Z,17.30
2017-09-26T08:22:51.730Z,17.03
2017-09-26T08:25:19.273Z,11.40
2017-09-26T08:27:46.850Z,15.60
2017-09-26T08:30:14.560Z,15.93
2017-09-26T08:32:42.031Z,15.50
2017-09-26T08:35:09.569Z,11.83
2017-09-26T08:37:37.076Z,18.30
2017-09-26T08:40:04.564Z,17.33
2017-09-26T08:42:32.049Z,15.00
2017-09-26T08:44:59.529Z,12.40
2017-09-26T08:47:27.593Z,14.70
2017-09-26T08:49:55.085Z,16.33
2017-09-26T08:52:22.629Z,16.37
2017-09-26T08:54:50.097Z,14.10
2017-09-26T08:57:17.618Z,19.90
2017-09-26T08:59:45.104Z,12.87
2017-09-26T09:02:12.634Z,18.63
2017-09-26T09:04:40.161Z,17.73
2017-09-26T09:07:07.831Z,23.50
2017-09-26T09:09:35.377Z,18.03
2017-09-26T09:12:02.861Z,16.40
2017-09-26T09:14:30.366Z,19.50
2017-09-26T09:16:57.878Z,18.07
2017-09-26T09:19:25.343Z,14.30
2017-09-26T09:21:53.193Z,14.00
2017-09-26T09:24:20.659Z,19.00
2017-09-26T09:26:48.134Z,15.03
2017-09-26T09:29:15.653Z,14.70
2017-09-26T09:31:43.163Z,14.40
2017-09-26T09:34:10.677Z,17.70
2017-09-26T09:36:38.493Z,14.77
2017-09-26T09:39:06.025Z,17.70
2017-09-26T09:41:33.543Z,15.57
2017-09-26T09:44:01.017Z,17.00
2017-09-26T09:46:28.495Z,17.30
2017-09-26T09:48:56.018Z,23.87
2017-09-26T09:51:23.844Z,24.97
2017-09-26T09:53:51.315Z,22.90
2017-09-26T09:56:18.812Z,16.27
2017-09-26T09:58:46.313Z,17.03
2017-09-26T10:01:13.822Z,13.97
2017-09-26T10:03:41.376Z,15.33
2017-09-26T10:06:08.902Z,16.40
2017-09-26T10:08:36.390Z,18.63
2017-09-26T10:11:03.875Z,20.00
2017-09-26T10:13:31.390Z,22.60
2017-09-26T10:15:59.692Z,22.87
2017-09-26T10:18:27.365Z,17.67
2017-09-26T10:20:54.834Z,15.37
2017-09-26T10:23:22.623Z,21.27
2017-09-26T10:25:50.137Z,19.67
2017-09-26T10:28:17.621Z,17.47
2017-09-26T10:30:45.127Z,16.57
2017-09-26T10:33:12.626Z,22.90
2017-09-26T10:35:40.482Z,17.10
2017-09-26T10:38:07.973Z,15.70
2017-09-26T10:40:35.457Z,16.83
2017-09-26T10:43:02.960Z,16.87
2017-09-26T10:45:30.466Z,17.17
2017-09-26T10:47:58.081Z,17.90
2017-09-26T10:50:25.567Z,13.60
2017-09-26T10:52:53.034Z,12.73
2017-09-26T10:55:21.244Z,14.53
2017-09-26T10:57:48.731Z,22.27
2017-09-26T11:00:16.228Z,17.23
2017-09-26T11:02:43.699Z,13.20
2017-09-26T11:05:11.216Z,19.20
2017-09-26T11:07:38.695Z,16.47
2017-09-26T11:10:06.258Z,12.87
2017-09-26T11:12:33.732Z,15.53
2017-09-26T11:15:01.232Z,12.20
2017-09-26T11:17:28.728Z,15.70
2017-09-26T11:19:56.510Z,16.00
2017-09-26T11:22:24.024Z,19.77
2017-09-26T11:24:51.492Z,18.03
2017-09-26T11:27:18.971Z,14.93
2017-09-26T11:29:46.464Z,10.70
2017-09-26T11:32:13.948Z,7.50
2017-09-26T11:34:41.427Z,18.80
2017-09-26T11:37:08.919Z,8.50
2017-09-26T11:39:36.401Z,9.07
2017-09-26T11:42:03.890Z,9.23
2017-09-26T11:44:31.400Z,11.60
2017-09-26T11:46:58.875Z,12.60
2017-09-26T11:49:26.406Z,10.37
2017-09-26T11:51:53.880Z,10.10
2017-09-26T11:54:21.379Z,8.70
2017-09-26T11:56:48.852Z,12.30
2017-09-26T11:59:16.357Z,9.93
2017-09-26T12:01:44.100Z,13.50
2017-09-26T12:04:11.645Z,13.07
2017-09-26T12:06:39.158Z,15.47
2017-09-26T12:09:06.636Z,12.77
2017-09-26T12:11:34.163Z,10.50
2017-09-26T12:14:06.647Z,10.90
2017-09-26T12:16:34.177Z,10.20
2017-09-26T12:19:01.652Z,10.53
2017-09-26T12:21:29.244Z,9.07
2017-09-26T12:23:56.758Z,11.50
2017-09-26T12:26:24.248Z,9.47
2017-09-26T12:28:51.743Z,13.60
2017-09-26T12:31:19.301Z,8.77
2017-09-26T12:33:46.786Z,11.80
2017-09-26T12:36:14.264Z,9.63
2017-09-26T12:38:41.758Z,9.60
2017-09-26T12:41:09.233Z,8.83
2017-09-26T12:43:36.809Z,9.20
2017-09-26T12:46:04.352Z,14.00
2017-09-26T12:48:31.881Z,12.03
2017-09-26T12:50:59.390Z,13.03
2017-09-26T12:53:27.007Z,9.63
2017-09-26T12:55:54.500Z,12.83
2017-09-26T12:58:22.105Z,10.43
2017-09-26T13:00:49.694Z,14.83
2017-09-26T13:03:17.194Z,15.83
2017-09-26T13:05:44.692Z,8.90
2017-09-26T13:08:12.204Z,12.17
2017-09-26T13:10:39.692Z,11.47
2017-09-26T13:13:07.178Z,9.40
2017-09-26T13:15:34.680Z,11.17
2017-09-26T13:18:02.207Z,11.87
2017-09-26T13:20:29.681Z,11.77
2017-09-26T13:22:57.155Z,9.97
2017-09-26T13:25:24.638Z,12.07
2017-09-26T13:27:52.126Z,11.47
2017-09-26T13:30:19.632Z,17.33
2017-09-26T13:32:47.997Z,13.63
2017-09-26T13:35:15.497Z,10.90
2017-09-26T13:37:43.937Z,12.57
2017-09-26T13:40:11.450Z,14.73
2017-09-26T13:42:38.988Z,10.30
2017-09-26T13:45:06.507Z,14.77
2017-09-26T13:47:33.987Z,16.77
2017-09-26T13:50:02.296Z,31.37
2017-09-26T13:52:29.804Z,15.90
2017-09-26T13:54:57.353Z,18.30
2017-09-26T13:57:24.847Z,15.33
2017-09-26T13:59:52.330Z,14.43
2017-09-26T14:02:19.931Z,12.10
2017-09-26T14:04:47.413Z,11.33
2017-09-26T14:07:14.906Z,11.03
2017-09-26T14:09:42.375Z,14.27
2017-09-26T14:12:10.177Z,13.87
2017-09-26T14:14:37.666Z,12.43
2017-09-26T14:17:05.136Z,12.87
2017-09-26T14:19:32.676Z,19.17
2017-09-26T14:22:00.174Z,13.10
2017-09-26T14:24:27.654Z,12.50
2017-09-26T14:26:55.134Z,10.63
2017-09-26T14:29:22.611Z,13.83
2017-09-26T14:31:50.089Z,13.27
2017-09-26T14:34:17.701Z,11.37
2017-09-26T14:36:45.176Z,10.60
2017-09-26T14:39:12.648Z,13.97
2017-09-26T14:41:40.144Z,9.13
2017-09-26T14:44:07.634Z,11.50
2017-09-26T14:46:35.137Z,11.10
2017-09-26T14:49:03.526Z,11.00
2017-09-26T14:51:31.007Z,11.67
2017-09-26T14:53:58.505Z,9.47
2017-09-26T14:56:25.991Z,9.90
2017-09-26T14:58:56.657Z,10.40
2017-09-26T15:01:24.241Z,10.17
2017-09-26T15:03:51.774Z,18.80
2017-09-26T15:06:19.275Z,14.77
2017-09-26T15:08:47.248Z,12.37
2017-09-26T15:11:14.737Z,10.23
2017-09-26T15:13:42.227Z,9.53
2017-09-26T15:16:09.726Z,13.43
2017-09-26T15:18:37.206Z,12.57
2017-09-26T15:21:04.701Z,15.50
2017-09-26T15:23:32.182Z,12.67
2017-09-26T15:25:59.693Z,14.80
2017-09-26T15:28:32.549Z,8.80
2017-09-26T15:31:00.130Z,12.90
2017-09-26T15:33:27.646Z,11.90
2017-09-26T15:35:55.142Z,10.53
2017-09-26T15:38:22.669Z,9.37
2017-09-26T15:40:50.156Z,11.60
2017-09-26T15:43:17.639Z,13.70
2017-09-26T15:45:45.392Z,13.67
2017-09-26T15:48:12.864Z,10.93
2017-09-26T15:50:40.345Z,9.57
2017-09-26T15:53:07.836Z,11.33
2017-09-26T15:55:35.325Z,10.50
2017-09-26T15:58:02.780Z,10.57
2017-09-26T16:00:30.259Z,12.03
2017-09-26T16:02:57.791Z,10.60
2017-09-26T16:05:25.277Z,11.20
2017-09-26T16:07:52.755Z,9.53
2017-09-26T16:10:20.223Z,7.10
2017-09-26T16:12:47.697Z,9.23
2017-09-26T16:15:15.236Z,8.50
2017-09-26T16:17:42.803Z,9.00
2017-09-26T16:20:10.275Z,8.40
2017-09-26T16:22:37.755Z,12.10
2017-09-26T16:25:05.215Z,10.50
2017-09-26T16:27:33.724Z,12.77
2017-09-26T16:30:02.151Z,14.57
2017-09-26T16:32:29.629Z,14.77
2017-09-26T16:34:57.126Z,13.10
2017-09-26T16:37:24.622Z,9.77
2017-09-26T16:39:52.129Z,13.50
2017-09-26T16:42:19.599Z,10.20
2017-09-26T16:44:47.072Z,7.60
2017-09-26T16:47:14.561Z,12.20
2017-09-26T16:49:42.060Z,16.23
2017-09-26T16:52:09.590Z,15.03
2017-09-26T16:54:37.074Z,13.80
2017-09-26T16:57:04.590Z,12.47
2017-09-26T16:59:32.064Z,11.40
2017-09-26T17:01:59.568Z,18.03
2017-09-26T17:04:27.064Z,19.10
2017-09-26T17:06:54.546Z,13.57
2017-09-26T17:09:22.063Z,17.43
2017-09-26T17:11:50.414Z,28.43
2017-09-26T17:14:18.133Z,15.50
2017-09-26T17:16:45.912Z,14.30
2017-09-26T17:19:13.662Z,11.60
2017-09-26T17:21:42.153Z,10.80
2017-09-26T17:24:11.190Z,14.57
2017-09-26T17:26:38.995Z,38.70
2017-09-26T17:29:06.590Z,35.70
2017-09-26T17:31:34.334Z,31.40
2017-09-26T17:34:01.931Z,22.60
2017-09-26T17:36:31.628Z,17.67
2017-09-26T17:38:59.359Z,11.10
2017-09-26T17:41:26.898Z,13.40
2017-09-26T17:43:54.427Z,9.63
2017-09-26T17:46:22.105Z,20.20
2017-09-26T17:48:49.879Z,18.33
2017-09-26T17:51:17.423Z,11.83
2017-09-26T17:53:44.965Z,11.60
2017-09-26T17:56:12.429Z,12.43
2017-09-26T17:58:40.108Z,12.43
2017-09-26T18:01:07.642Z,10.87
2017-09-26T18:03:35.140Z,8.60
2017-09-26T18:06:02.596Z,7.30
2017-09-26T18:08:30.925Z,9.10
2017-09-26T18:10:58.430Z,8.50
2017-09-26T18:13:25.924Z,9.00
2017-09-26T18:15:53.399Z,6.80
2017-09-26T18:18:20.963Z,6.57
2017-09-26T18:20:48.465Z,7.83
2017-09-26T18:23:15.935Z,10.83
2017-09-26T18:25:43.418Z,9.33
2017-09-26T18:28:11.493Z,11.80
2017-09-26T18:30:39.011Z,17.50
2017-09-26T18:33:06.496Z,16.97
2017-09-26T18:35:33.978Z,12.10
2017-09-26T18:38:01.529Z,12.43
2017-09-26T18:40:29.006Z,12.30
2017-09-26T18:42:56.513Z,9.67
2017-09-26T18:45:24.006Z,10.57
2017-09-26T18:47:51.466Z,12.00
2017-09-26T18:50:18.947Z,10.30
2017-09-26T18:52:46.503Z,16.60
2017-09-26T18:55:14.001Z,13.50
2017-09-26T18:57:41.504Z,10.80
2017-09-26T19:00:08.998Z,13.40
2017-09-26T19:02:36.494Z,11.60
2017-09-26T19:05:03.983Z,9.50
2017-09-26T19:07:31.484Z,9.70
2017-09-26T19:09:58.981Z,12.37
2017-09-26T19:12:26.493Z,12.17
2017-09-26T19:14:54.004Z,14.83
2017-09-26T19:17:21.503Z,12.17
2017-09-26T19:19:48.970Z,9.50
2017-09-26T19:22:16.483Z,10.53
2017-09-26T19:24:43.975Z,12.90
2017-09-26T19:27:11.497Z,10.23
2017-09-26T19:29:38.997Z,9.17
2017-09-26T19:32:06.493Z,11.73
2017-09-26T19:34:34.075Z,10.57
2017-09-26T19:37:02.339Z,17.00
2017-09-26T19:39:29.806Z,17.63
2017-09-26T19:41:57.328Z,19.30
2017-09-26T19:44:24.829Z,15.37
2017-09-26T19:46:52.350Z,14.83
2017-09-26T19:49:19.843Z,14.57
2017-09-26T19:51:47.790Z,17.60
2017-09-26T19:54:15.297Z,10.10
2017-09-26T19:56:42.799Z,10.87
2017-09-26T19:59:10.263Z,7.43
2017-09-26T20:01:37.752Z,11.07
2017-09-26T20:04:05.253Z,8.83
2017-09-26T20:06:32.737Z,10.43
2017-09-26T20:09:00.211Z,11.70
2017-09-26T20:11:27.696Z,15.40
2017-09-26T20:13:55.213Z,16.93
2017-09-26T20:16:22.712Z,15.80
2017-09-26T20:18:50.191Z,13.03
2017-09-26T20:21:17.822Z,13.93
2017-09-26T20:23:45.339Z,11.03
2017-09-26T20:26:12.820Z,9.57
2017-09-26T20:28:40.358Z,11.47
2017-09-26T20:31:07.844Z,12.10
2017-09-26T20:33:35.322Z,12.40
2017-09-26T20:36:02.809Z,11.80
2017-09-26T20:38:30.371Z,16.90
2017-09-26T20:40:57.842Z,12.33
2017-09-26T20:43:25.324Z,12.20
2017-09-26T20:45:52.825Z,9.80
2017-09-26T20:48:20.293Z,12.90
2017-09-26T20:50:47.790Z,13.83
2017-09-26T20:53:15.307Z,10.40
2017-09-26T20:55:42.844Z,12.10
2017-09-26T20:58:10.325Z,10.03
2017-09-26T21:00:37.803Z,10.47
2017-09-26T21:03:05.311Z,8.20
2017-09-26T21:05:32.781Z,8.47
2017-09-26T21:08:00.269Z,8.70
2017-09-26T21:10:27.810Z,10.53
2017-09-26T21:12:55.292Z,12.13
2017-09-26T21:15:22.814Z,14.20
2017-09-26T21:17:50.297Z,16.13
2017-09-26T21:20:17.792Z,14.53
2017-09-26T21:22:45.358Z,11.00
2017-09-26T21:25:12.846Z,10.00
2017-09-26T21:27:40.398Z,12.37
2017-09-26T21:30:07.946Z,11.07
2017-09-26T21:32:35.419Z,9.77
2017-09-26T21:35:02.878Z,9.40
2017-09-26T21:37:30.359Z,9.20
2017-09-26T21:39:57.836Z,11.10
2017-09-26T21:42:25.318Z,11.30
2017-09-26T21:44:52.816Z,9.47
2017-09-26T21:47:20.303Z,9.70
2017-09-26T21:49:47.771Z,9.23
2017-09-26T21:52:15.228Z,8.90
2017-09-26T21:54:42.735Z,9.43
2017-09-26T21:57:10.221Z,11.00
2017-09-26T21:59:38.072Z,9.70
2017-09-26T22:02:05.546Z,15.10
2017-09-26T22:04:33.068Z,10.53
2017-09-26T22:07:00.592Z,10.47
2017-09-26T22:09:28.059Z,13.53
2017-09-26T22:11:55.637Z,8.27
2017-09-26T22:14:23.111Z,10.27
2017-09-26T22:16:50.601Z,9.63
2017-09-26T22:19:18.075Z,9.27
2017-09-26T22:21:45.549Z,9.13
2017-09-26T22:24:13.122Z,9.47
2017-09-26T22:26:40.677Z,8.03
2017-09-26T22:29:08.152Z,7.07
2017-09-26T22:31:35.637Z,10.37
2017-09-26T22:34:03.087Z,9.20
2017-09-26T22:36:30.565Z,8.00
2017-09-26T22:38:58.060Z,8.30
2017-09-26T22:41:25.604Z,7.90
2017-09-26T22:43:53.063Z,10.03
2017-09-26T22:46:20.627Z,8.13
2017-09-26T22:48:48.112Z,8.57
2017-09-26T22:51:15.693Z,8.40
2017-09-26T22:53:43.205Z,8.70
2017-09-26T22:56:10.668Z,9.00
2017-09-26T22:58:38.165Z,9.03
2017-09-26T23:01:05.628Z,12.57
2017-09-26T23:03:33.099Z,8.63
2017-09-26T23:06:00.574Z,8.63
2017-09-26T23:08:28.044Z,9.60
2017-09-26T23:10:55.536Z,8.50
2017-09-26T23:13:23.011Z,8.17
2017-09-26T23:15:50.496Z,11.40
2017-09-26T23:18:17.991Z,9.00
2017-09-26T23:20:45.477Z,11.23
2017-09-26T23:23:12.944Z,8.60
2017-09-26T23:25:40.395Z,7.17
2017-09-26T23:28:07.864Z,8.83
2017-09-26T23:30:35.346Z,12.30
2017-09-26T23:33:02.827Z,8.37
2017-09-26T23:35:30.287Z,9.57
2017-09-26T23:37:57.784Z,8.90
2017-09-26T23:40:25.246Z,8.20
2017-09-26T23:42:52.710Z,7.87
2017-09-26T23:45:20.214Z,8.10
2017-09-26T23:47:47.667Z,8.53
2017-09-26T23:50:15.149Z,7.57
2017-09-26T23:52:42.617Z,8.80
2017-09-26T23:55:10.089Z,7.83
2017-09-26T23:57:37.577Z,7.20
